sensor_id;sensor_type;location;lat;lon;timestamp;pressure;altitude;pressure_sealevel;temperature;humidity
85166;BME280;75533;52.100;10.228;2024-02-28T00:01:16;100362.28;;;17.98;45.73
85166;BME280;75533;52.100;10.228;2024-02-28T00:03:41;100368.00;;;17.97;45.77
85166;BME280;75533;52.100;10.228;2024-02-28T00:06:07;100363.53;;;17.96;45.87
85166;BME280;75533;52.100;10.228;2024-02-28T00:08:32;100370.97;;;17.95;45.79
85166;BME280;75533;52.100;10.228;2024-02-28T00:10:57;100368.22;;;17.95;45.93
85166;BME280;75533;52.100;10.228;2024-02-28T00:13:22;100368.41;;;17.94;46.06
85166;BME280;75533;52.100;10.228;2024-02-28T00:15:49;100377.56;;;17.94;45.87
85166;BME280;75533;52.100;10.228;2024-02-28T00:18:15;100375.63;;;17.95;45.99
85166;BME280;75533;52.100;10.228;2024-02-28T00:20:40;100379.47;;;17.94;45.88
85166;BME280;75533;52.100;10.228;2024-02-28T00:23:05;100376.69;;;17.94;45.77
85166;BME280;75533;52.100;10.228;2024-02-28T00:25:31;100381.38;;;17.93;45.52
85166;BME280;75533;52.100;10.228;2024-02-28T00:27:56;100386.91;;;17.93;45.82
85166;BME280;75533;52.100;10.228;2024-02-28T00:30:22;100386.91;;;17.93;45.75
85166;BME280;75533;52.100;10.228;2024-02-28T00:32:47;100385.19;;;17.92;45.60
85166;BME280;75533;52.100;10.228;2024-02-28T00:35:13;100377.50;;;17.88;45.75
85166;BME280;75533;52.100;10.228;2024-02-28T00:37:38;100386.44;;;17.90;45.56
85166;BME280;75533;52.100;10.228;2024-02-28T00:40:04;100392.81;;;17.90;45.81
85166;BME280;75533;52.100;10.228;2024-02-28T00:42:29;100386.44;;;17.90;45.54
85166;BME280;75533;52.100;10.228;2024-02-28T00:44:55;100390.47;;;17.87;45.59
85166;BME280;75533;52.100;10.228;2024-02-28T00:47:20;100387.72;;;17.87;45.72
85166;BME280;75533;52.100;10.228;2024-02-28T00:49:45;100391.53;;;17.86;46.00
85166;BME280;75533;52.100;10.228;2024-02-28T00:52:11;100388.97;;;17.85;45.76
85166;BME280;75533;52.100;10.228;2024-02-28T00:54:36;100390.66;;;17.86;45.87
85166;BME280;75533;52.100;10.228;2024-02-28T00:57:02;100383.44;;;17.85;45.66
85166;BME280;75533;52.100;10.228;2024-02-28T00:59:27;100390.03;;;17.84;45.60
85166;BME280;75533;52.100;10.228;2024-02-28T01:01:53;100389.81;;;17.85;45.95
85166;BME280;75533;52.100;10.228;2024-02-28T01:04:18;100401.94;;;17.84;45.72
85166;BME280;75533;52.100;10.228;2024-02-28T01:06:43;100394.69;;;17.83;45.91
85166;BME280;75533;52.100;10.228;2024-02-28T01:09:08;100400.22;;;17.83;45.63
85166;BME280;75533;52.100;10.228;2024-02-28T01:11:34;100418.69;;;17.83;45.80
85166;BME280;75533;52.100;10.228;2024-02-28T01:13:59;100415.28;;;17.81;45.63
85166;BME280;75533;52.100;10.228;2024-02-28T01:16:25;100409.34;;;17.84;45.66
85166;BME280;75533;52.100;10.228;2024-02-28T01:18:51;100413.38;;;17.81;45.96
85166;BME280;75533;52.100;10.228;2024-02-28T01:21:16;100423.78;;;17.79;45.71
85166;BME280;75533;52.100;10.228;2024-02-28T01:23:41;100414.81;;;17.77;45.97
85166;BME280;75533;52.100;10.228;2024-02-28T01:26:07;100407.56;;;17.76;45.84
85166;BME280;75533;52.100;10.228;2024-02-28T01:28:32;100411.00;;;17.78;45.84
85166;BME280;75533;52.100;10.228;2024-02-28T01:30:57;100406.72;;;17.76;45.76
85166;BME280;75533;52.100;10.228;2024-02-28T01:33:23;100404.81;;;17.76;45.83
85166;BME280;75533;52.100;10.228;2024-02-28T01:35:48;100400.34;;;17.75;45.85
85166;BME280;75533;52.100;10.228;2024-02-28T01:38:14;100400.34;;;17.75;45.91
85166;BME280;75533;52.100;10.228;2024-02-28T01:40:46;100393.13;;;17.74;45.82
85166;BME280;75533;52.100;10.228;2024-02-28T01:43:12;100394.81;;;17.75;45.64
85166;BME280;75533;52.100;10.228;2024-02-28T01:45:38;100396.94;;;17.73;45.62
85166;BME280;75533;52.100;10.228;2024-02-28T01:48:05;100391.81;;;17.70;45.85
85166;BME280;75533;52.100;10.228;2024-02-28T01:50:32;100383.31;;;17.71;45.75
85166;BME280;75533;52.100;10.228;2024-02-28T01:52:58;100385.25;;;17.71;45.98
85166;BME280;75533;52.100;10.228;2024-02-28T01:55:23;100392.66;;;17.70;45.67
85166;BME280;75533;52.100;10.228;2024-02-28T01:57:49;100395.63;;;17.69;45.83
85166;BME280;75533;52.100;10.228;2024-02-28T02:00:15;100393.94;;;17.68;45.80
85166;BME280;75533;52.100;10.228;2024-02-28T02:02:41;100394.78;;;17.68;45.93
85166;BME280;75533;52.100;10.228;2024-02-28T02:05:08;100384.78;;;17.67;45.82
85166;BME280;75533;52.100;10.228;2024-02-28T02:07:34;100382.03;;;17.67;45.92
85166;BME280;75533;52.100;10.228;2024-02-28T02:10:00;100384.59;;;17.69;45.55
85166;BME280;75533;52.100;10.228;2024-02-28T02:12:26;100392.38;;;17.65;45.74
85166;BME280;75533;52.100;10.228;2024-02-28T02:14:51;100398.09;;;17.64;45.79
85166;BME280;75533;52.100;10.228;2024-02-28T02:17:16;100387.91;;;17.64;45.75
85166;BME280;75533;52.100;10.228;2024-02-28T02:19:42;100387.91;;;17.64;45.70
85166;BME280;75533;52.100;10.228;2024-02-28T02:22:08;100392.78;;;17.62;45.93
85166;BME280;75533;52.100;10.228;2024-02-28T02:24:34;100385.56;;;17.61;46.13
85166;BME280;75533;52.100;10.228;2024-02-28T02:27:02;100380.91;;;17.62;45.79
85166;BME280;75533;52.100;10.228;2024-02-28T02:29:29;100372.16;;;17.58;45.99
85166;BME280;75533;52.100;10.228;2024-02-28T02:31:55;100381.94;;;17.61;45.86
85166;BME280;75533;52.100;10.228;2024-02-28T02:34:20;100387.47;;;17.61;45.83
85166;BME280;75533;52.100;10.228;2024-02-28T02:36:45;100374.94;;;17.58;45.73
85166;BME280;75533;52.100;10.228;2024-02-28T02:39:11;100374.25;;;17.56;45.84
85166;BME280;75533;52.100;10.228;2024-02-28T02:41:36;100374.72;;;17.60;45.78
85166;BME280;75533;52.100;10.228;2024-02-28T02:44:01;100376.16;;;17.56;45.88
85166;BME280;75533;52.100;10.228;2024-02-28T02:46:27;100377.88;;;17.57;45.87
85166;BME280;75533;52.100;10.228;2024-02-28T02:48:52;100381.50;;;17.57;45.98
85166;BME280;75533;52.100;10.228;2024-02-28T02:51:19;100379.75;;;17.56;45.84
85166;BME280;75533;52.100;10.228;2024-02-28T02:53:44;100381.00;;;17.54;45.96
85166;BME280;75533;52.100;10.228;2024-02-28T02:56:09;100371.88;;;17.53;45.82
85166;BME280;75533;52.100;10.228;2024-02-28T02:58:35;100381.00;;;17.54;45.83
85166;BME280;75533;52.100;10.228;2024-02-28T03:01:00;100367.41;;;17.52;45.79
85166;BME280;75533;52.100;10.228;2024-02-28T03:03:25;100367.63;;;17.51;45.75
85166;BME280;75533;52.100;10.228;2024-02-28T03:05:50;100374.84;;;17.52;45.80
85166;BME280;75533;52.100;10.228;2024-02-28T03:08:16;100370.56;;;17.49;45.94
85166;BME280;75533;52.100;10.228;2024-02-28T03:10:41;100374.19;;;17.50;45.93
85166;BME280;75533;52.100;10.228;2024-02-28T03:13:07;100378.84;;;17.49;45.89
85166;BME280;75533;52.100;10.228;2024-02-28T03:15:33;100380.97;;;17.47;45.71
85166;BME280;75533;52.100;10.228;2024-02-28T03:17:59;100379.06;;;17.48;45.98
85166;BME280;75533;52.100;10.228;2024-02-28T03:20:24;100386.50;;;17.47;45.92
85166;BME280;75533;52.100;10.228;2024-02-28T03:22:50;100384.59;;;17.48;45.82
85166;BME280;75533;52.100;10.228;2024-02-28T03:25:16;100377.34;;;17.47;45.88
85166;BME280;75533;52.100;10.228;2024-02-28T03:27:41;100381.38;;;17.44;45.99
85166;BME280;75533;52.100;10.228;2024-02-28T03:30:06;100383.94;;;17.46;45.72
85166;BME280;75533;52.100;10.228;2024-02-28T03:32:32;100383.28;;;17.44;45.92
85166;BME280;75533;52.100;10.228;2024-02-28T03:34:57;100388.78;;;17.44;45.86
85166;BME280;75533;52.100;10.228;2024-02-28T03:37:23;100397.06;;;17.44;45.97
85166;BME280;75533;52.100;10.228;2024-02-28T03:39:48;100392.63;;;17.42;45.89
85166;BME280;75533;52.100;10.228;2024-02-28T03:42:14;100392.63;;;17.42;45.91
85166;BME280;75533;52.100;10.228;2024-02-28T03:44:39;100401.09;;;17.41;46.13
85166;BME280;75533;52.100;10.228;2024-02-28T03:47:05;100393.66;;;17.41;45.77
85166;BME280;75533;52.100;10.228;2024-02-28T03:49:30;100393.66;;;17.41;45.92
85166;BME280;75533;52.100;10.228;2024-02-28T03:51:55;100394.91;;;17.39;45.85
85166;BME280;75533;52.100;10.228;2024-02-28T03:54:21;100396.63;;;17.40;46.05
85166;BME280;75533;52.100;10.228;2024-02-28T03:56:46;100399.59;;;17.38;46.06
85166;BME280;75533;52.100;10.228;2024-02-28T03:59:11;100407.00;;;17.38;46.01
85166;BME280;75533;52.100;10.228;2024-02-28T04:01:36;100408.91;;;17.37;45.88
85166;BME280;75533;52.100;10.228;2024-02-28T04:04:02;100405.97;;;17.39;45.87
85166;BME280;75533;52.100;10.228;2024-02-28T04:06:27;100418.25;;;17.36;46.30
85166;BME280;75533;52.100;10.228;2024-02-28T04:08:53;100416.53;;;17.35;46.03
85166;BME280;75533;52.100;10.228;2024-02-28T04:11:18;100420.31;;;17.34;46.02
85166;BME280;75533;52.100;10.228;2024-02-28T04:13:44;100423.75;;;17.36;46.03
85166;BME280;75533;52.100;10.228;2024-02-28T04:16:09;100424.13;;;17.33;45.69
85166;BME280;75533;52.100;10.228;2024-02-28T04:18:35;100430.72;;;17.32;45.98
85166;BME280;75533;52.100;10.228;2024-02-28T04:21:00;100440.88;;;17.32;45.91
85166;BME280;75533;52.100;10.228;2024-02-28T04:23:25;100448.97;;;17.33;45.91
85166;BME280;75533;52.100;10.228;2024-02-28T04:25:51;100452.78;;;17.32;46.02
85166;BME280;75533;52.100;10.228;2024-02-28T04:28:16;100455.09;;;17.29;46.13
85166;BME280;75533;52.100;10.228;2024-02-28T04:30:41;100457.66;;;17.30;46.05
85166;BME280;75533;52.100;10.228;2024-02-28T04:33:07;100468.69;;;17.30;45.86
85166;BME280;75533;52.100;10.228;2024-02-28T04:35:33;100457.00;;;17.28;46.05
85166;BME280;75533;52.100;10.228;2024-02-28T04:37:58;100458.03;;;17.27;46.28
85166;BME280;75533;52.100;10.228;2024-02-28T04:40:24;100457.84;;;17.29;46.06
85166;BME280;75533;52.100;10.228;2024-02-28T04:42:49;100450.81;;;17.26;45.88
85166;BME280;75533;52.100;10.228;2024-02-28T04:45:15;100456.34;;;17.26;46.02
85166;BME280;75533;52.100;10.228;2024-02-28T04:47:40;100468.22;;;17.27;46.11
85166;BME280;75533;52.100;10.228;2024-02-28T04:50:06;100466.53;;;17.26;45.94
85166;BME280;75533;52.100;10.228;2024-02-28T04:52:32;100469.47;;;17.24;46.06
85166;BME280;75533;52.100;10.228;2024-02-28T04:54:58;100469.47;;;17.24;46.08
85166;BME280;75533;52.100;10.228;2024-02-28T04:57:24;100472.03;;;17.26;46.11
85166;BME280;75533;52.100;10.228;2024-02-28T04:59:49;100482.22;;;17.25;46.05
85166;BME280;75533;52.100;10.228;2024-02-28T05:02:15;100476.69;;;17.25;45.94
85166;BME280;75533;52.100;10.228;2024-02-28T05:04:42;100475.84;;;17.25;46.15
85166;BME280;75533;52.100;10.228;2024-02-28T05:07:07;100475.00;;;17.24;46.34
85166;BME280;75533;52.100;10.228;2024-02-28T05:09:33;100479.66;;;17.24;46.30
85166;BME280;75533;52.100;10.228;2024-02-28T05:11:59;100477.94;;;17.23;46.07
85166;BME280;75533;52.100;10.228;2024-02-28T05:14:24;100473.28;;;17.23;46.16
85166;BME280;75533;52.100;10.228;2024-02-28T05:16:50;100471.56;;;17.22;46.35
85166;BME280;75533;52.100;10.228;2024-02-28T05:19:15;100474.34;;;17.22;46.27
85166;BME280;75533;52.100;10.228;2024-02-28T05:21:44;100477.09;;;17.22;46.48
85166;BME280;75533;52.100;10.228;2024-02-28T05:24:10;100473.47;;;17.22;46.48
85166;BME280;75533;52.100;10.228;2024-02-28T05:26:36;100478.16;;;17.21;46.28
85166;BME280;75533;52.100;10.228;2024-02-28T05:29:02;100488.13;;;17.22;46.31
85166;BME280;75533;52.100;10.228;2024-02-28T05:31:28;100481.63;;;17.30;46.38
85166;BME280;75533;52.100;10.228;2024-02-28T05:33:55;100492.94;;;17.35;46.40
85166;BME280;75533;52.100;10.228;2024-02-28T05:36:24;100488.00;;;17.30;46.50
85166;BME280;75533;52.100;10.228;2024-02-28T05:38:50;100486.94;;;17.31;46.53
85166;BME280;75533;52.100;10.228;2024-02-28T05:41:18;100486.28;;;17.29;46.23
85166;BME280;75533;52.100;10.228;2024-02-28T05:43:44;100486.09;;;17.31;46.30
85166;BME280;75533;52.100;10.228;2024-02-28T05:46:11;100497.59;;;17.34;46.07
85166;BME280;75533;52.100;10.228;2024-02-28T05:48:36;100501.03;;;17.36;46.30
85166;BME280;75533;52.100;10.228;2024-02-28T05:51:02;100506.56;;;17.36;46.03
85166;BME280;75533;52.100;10.228;2024-02-28T05:53:28;100505.31;;;17.39;46.15
85166;BME280;75533;52.100;10.228;2024-02-28T05:55:57;100503.22;;;17.41;46.26
85166;BME280;75533;52.100;10.228;2024-02-28T05:58:23;100503.66;;;17.45;46.07
85166;BME280;75533;52.100;10.228;2024-02-28T06:00:49;100503.47;;;17.46;45.83
85166;BME280;75533;52.100;10.228;2024-02-28T06:03:14;100515.16;;;17.48;45.90
85166;BME280;75533;52.100;10.228;2024-02-28T06:05:40;100520.50;;;17.50;45.84
85166;BME280;75533;52.100;10.228;2024-02-28T06:08:05;100529.22;;;17.53;45.69
85166;BME280;75533;52.100;10.228;2024-02-28T06:10:31;100529.03;;;17.55;45.77
85166;BME280;75533;52.100;10.228;2024-02-28T06:12:56;100536.97;;;17.58;45.52
85166;BME280;75533;52.100;10.228;2024-02-28T06:15:21;100538.28;;;17.62;45.67
85166;BME280;75533;52.100;10.228;2024-02-28T06:17:47;100534.47;;;17.63;45.55
85166;BME280;75533;52.100;10.228;2024-02-28T06:20:12;100537.22;;;17.63;45.43
85166;BME280;75533;52.100;10.228;2024-02-28T06:22:37;100544.94;;;17.67;45.83
85166;BME280;75533;52.100;10.228;2024-02-28T06:25:03;100547.31;;;17.70;45.46
85166;BME280;75533;52.100;10.228;2024-02-28T06:27:32;100546.06;;;17.73;45.47
85166;BME280;75533;52.100;10.228;2024-02-28T06:29:59;100553.28;;;17.74;45.45
85166;BME280;75533;52.100;10.228;2024-02-28T06:32:24;100561.84;;;17.79;45.30
85166;BME280;75533;52.100;10.228;2024-02-28T06:34:50;100556.13;;;17.81;45.06
85166;BME280;75533;52.100;10.228;2024-02-28T06:37:15;100564.03;;;17.84;45.18
85166;BME280;75533;52.100;10.228;2024-02-28T06:39:41;100566.59;;;17.85;45.10
85166;BME280;75533;52.100;10.228;2024-02-28T06:42:07;100574.28;;;17.90;44.75
85166;BME280;75533;52.100;10.228;2024-02-28T06:44:32;100580.25;;;17.93;44.95
85166;BME280;75533;52.100;10.228;2024-02-28T06:46:58;100585.59;;;17.95;45.03
85166;BME280;75533;52.100;10.228;2024-02-28T06:49:23;100588.81;;;17.98;44.82
85166;BME280;75533;52.100;10.228;2024-02-28T06:51:49;100591.38;;;18.00;44.93
85166;BME280;75533;52.100;10.228;2024-02-28T06:54:14;100594.41;;;18.05;45.10
85166;BME280;75533;52.100;10.228;2024-02-28T06:56:40;100585.72;;;18.08;44.99
85166;BME280;75533;52.100;10.228;2024-02-28T06:59:05;100590.66;;;18.13;44.79
85166;BME280;75533;52.100;10.228;2024-02-28T07:01:32;100586.84;;;18.14;44.98
85166;BME280;75533;52.100;10.228;2024-02-28T07:03:57;100592.81;;;18.17;44.60
85166;BME280;75533;52.100;10.228;2024-02-28T07:06:23;100584.97;;;18.21;44.71
85166;BME280;75533;52.100;10.228;2024-02-28T07:08:48;100575.91;;;18.27;44.46
85166;BME280;75533;52.100;10.228;2024-02-28T07:11:14;100573.16;;;18.27;44.33
85166;BME280;75533;52.100;10.228;2024-02-28T07:13:40;100585.50;;;18.31;44.26
85166;BME280;75533;52.100;10.228;2024-02-28T07:16:06;100584.47;;;18.32;44.27
85166;BME280;75533;52.100;10.228;2024-02-28T07:18:31;100584.91;;;18.36;44.24
85166;BME280;75533;52.100;10.228;2024-02-28T07:20:57;100583.72;;;18.45;44.17
85166;BME280;75533;52.100;10.228;2024-02-28T07:23:22;100586.28;;;18.46;44.11
85166;BME280;75533;52.100;10.228;2024-02-28T07:25:48;100590.78;;;18.47;43.94
85166;BME280;75533;52.100;10.228;2024-02-28T07:28:13;100582.28;;;18.49;44.04
85166;BME280;75533;52.100;10.228;2024-02-28T07:30:38;100591.91;;;18.59;43.91
85166;BME280;75533;52.100;10.228;2024-02-28T07:33:05;100592.75;;;18.60;44.01
85166;BME280;75533;52.100;10.228;2024-02-28T07:35:31;100593.41;;;18.62;43.74
85166;BME280;75533;52.100;10.228;2024-02-28T07:37:56;100589.91;;;18.68;43.81
85166;BME280;75533;52.100;10.228;2024-02-28T07:40:21;100592.47;;;18.70;43.73
85166;BME280;75533;52.100;10.228;2024-02-28T07:42:47;100593.75;;;18.74;43.70
85166;BME280;75533;52.100;10.228;2024-02-28T07:45:12;100591.44;;;18.77;43.72
85166;BME280;75533;52.100;10.228;2024-02-28T07:47:38;100592.09;;;18.79;43.61
85166;BME280;75533;52.100;10.228;2024-02-28T07:50:06;100599.78;;;18.84;43.54
85166;BME280;75533;52.100;10.228;2024-02-28T07:52:31;100595.31;;;18.83;43.67
85166;BME280;75533;52.100;10.228;2024-02-28T07:55:00;100602.81;;;18.89;43.42
85166;BME280;75533;52.100;10.228;2024-02-28T07:57:25;100606.03;;;18.92;43.37
85166;BME280;75533;52.100;10.228;2024-02-28T07:59:52;100604.97;;;18.93;43.44
85166;BME280;75533;52.100;10.228;2024-02-28T08:02:18;100604.75;;;18.95;43.55
85166;BME280;75533;52.100;10.228;2024-02-28T08:04:45;100599.44;;;18.93;43.47
85166;BME280;75533;52.100;10.228;2024-02-28T08:07:10;100594.09;;;18.92;43.40
85166;BME280;75533;52.100;10.228;2024-02-28T08:09:36;100608.41;;;19.02;43.44
85166;BME280;75533;52.100;10.228;2024-02-28T08:12:01;100608.88;;;19.06;43.34
85166;BME280;75533;52.100;10.228;2024-02-28T08:14:27;100600.34;;;19.07;43.32
85166;BME280;75533;52.100;10.228;2024-02-28T08:16:52;100617.22;;;19.12;43.20
85166;BME280;75533;52.100;10.228;2024-02-28T08:19:18;100602.13;;;19.15;43.11
85166;BME280;75533;52.100;10.228;2024-02-28T08:21:43;100602.56;;;19.18;43.06
85166;BME280;75533;52.100;10.228;2024-02-28T08:24:09;100608.72;;;19.14;43.12
85166;BME280;75533;52.100;10.228;2024-02-28T08:26:34;100605.13;;;19.20;43.13
85166;BME280;75533;52.100;10.228;2024-02-28T08:29:01;100604.28;;;19.19;43.23
85166;BME280;75533;52.100;10.228;2024-02-28T08:31:26;100604.91;;;19.21;43.09
85166;BME280;75533;52.100;10.228;2024-02-28T08:33:51;100605.16;;;19.27;43.10
85166;BME280;75533;52.100;10.228;2024-02-28T08:36:17;100610.47;;;19.28;42.96
85166;BME280;75533;52.100;10.228;2024-02-28T08:38:42;100606.47;;;19.31;43.11
85166;BME280;75533;52.100;10.228;2024-02-28T08:41:08;100619.91;;;19.34;42.88
85166;BME280;75533;52.100;10.228;2024-02-28T08:43:37;100623.31;;;19.36;42.98
85166;BME280;75533;52.100;10.228;2024-02-28T08:46:03;100619.03;;;19.33;42.80
85166;BME280;75533;52.100;10.228;2024-02-28T08:48:29;100626.28;;;19.34;42.91
85166;BME280;75533;52.100;10.228;2024-02-28T08:50:54;100627.56;;;19.32;43.12
85166;BME280;75533;52.100;10.228;2024-02-28T08:53:19;100628.22;;;19.34;43.20
85166;BME280;75533;52.100;10.228;2024-02-28T08:55:45;100626.09;;;19.36;43.20
85166;BME280;75533;52.100;10.228;2024-02-28T08:58:10;100632.47;;;19.36;43.21
85166;BME280;75533;52.100;10.228;2024-02-28T09:00:36;100619.50;;;19.37;43.32
85166;BME280;75533;52.100;10.228;2024-02-28T09:03:01;100619.28;;;19.38;43.19
85166;BME280;75533;52.100;10.228;2024-02-28T09:05:27;100631.22;;;19.39;43.37
85166;BME280;75533;52.100;10.228;2024-02-28T09:07:52;100629.72;;;19.43;43.21
85166;BME280;75533;52.100;10.228;2024-02-28T09:10:20;100624.19;;;19.43;43.49
85166;BME280;75533;52.100;10.228;2024-02-28T09:12:49;100625.06;;;19.43;43.35
85166;BME280;75533;52.100;10.228;2024-02-28T09:15:14;100626.97;;;19.43;43.45
85166;BME280;75533;52.100;10.228;2024-02-28T09:17:40;100627.59;;;19.45;43.39
85166;BME280;75533;52.100;10.228;2024-02-28T09:20:05;100625.69;;;19.45;43.40
85166;BME280;75533;52.100;10.228;2024-02-28T09:22:31;100636.13;;;19.43;43.61
85166;BME280;75533;52.100;10.228;2024-02-28T09:24:57;100638.03;;;19.43;43.58
85166;BME280;75533;52.100;10.228;2024-02-28T09:27:22;100630.34;;;19.38;43.73
85166;BME280;75533;52.100;10.228;2024-02-28T09:29:49;100626.53;;;19.46;43.56
85166;BME280;75533;52.100;10.228;2024-02-28T09:32:14;100631.22;;;19.45;43.67
85166;BME280;75533;52.100;10.228;2024-02-28T09:34:40;100641.25;;;19.46;43.68
85166;BME280;75533;52.100;10.228;2024-02-28T09:37:05;100639.34;;;19.47;43.70
85166;BME280;75533;52.100;10.228;2024-02-28T09:39:30;100645.53;;;19.49;43.73
85166;BME280;75533;52.100;10.228;2024-02-28T09:41:56;100644.66;;;19.48;43.76
85166;BME280;75533;52.100;10.228;2024-02-28T09:44:23;100644.03;;;19.46;43.80
85166;BME280;75533;52.100;10.228;2024-02-28T09:46:52;100641.25;;;19.46;43.88
85166;BME280;75533;52.100;10.228;2024-02-28T09:49:18;100644.88;;;19.47;43.91
85166;BME280;75533;52.100;10.228;2024-02-28T09:51:44;100650.00;;;19.50;43.93
85166;BME280;75533;52.100;10.228;2024-02-28T09:54:09;100649.78;;;19.51;43.93
85166;BME280;75533;52.100;10.228;2024-02-28T09:56:35;100641.47;;;19.51;43.85
85166;BME280;75533;52.100;10.228;2024-02-28T09:59:00;100648.75;;;19.52;43.76
85166;BME280;75533;52.100;10.228;2024-02-28T10:01:28;100643.22;;;19.52;43.88
85166;BME280;75533;52.100;10.228;2024-02-28T10:03:54;100651.53;;;19.52;43.83
85166;BME280;75533;52.100;10.228;2024-02-28T10:06:21;100648.59;;;19.54;43.99
85166;BME280;75533;52.100;10.228;2024-02-28T10:08:47;100637.22;;;19.49;43.95
85166;BME280;75533;52.100;10.228;2024-02-28T10:11:22;100655.16;;;19.53;44.15
85166;BME280;75533;52.100;10.228;2024-02-28T10:13:48;100655.84;;;19.55;44.13
85166;BME280;75533;52.100;10.228;2024-02-28T10:16:14;100659.25;;;19.57;44.07
85166;BME280;75533;52.100;10.228;2024-02-28T10:18:42;100663.72;;;19.58;44.21
85166;BME280;75533;52.100;10.228;2024-02-28T10:21:07;100667.13;;;19.60;44.15
85166;BME280;75533;52.100;10.228;2024-02-28T10:23:33;100660.31;;;19.63;44.18
85166;BME280;75533;52.100;10.228;2024-02-28T10:26:00;100660.75;;;19.66;44.06
85166;BME280;75533;52.100;10.228;2024-02-28T10:28:26;100668.88;;;19.68;44.20
85166;BME280;75533;52.100;10.228;2024-02-28T10:30:52;100674.84;;;19.71;44.14
85166;BME280;75533;52.100;10.228;2024-02-28T10:33:18;100675.25;;;19.68;44.34
85166;BME280;75533;52.100;10.228;2024-02-28T10:35:43;100678.69;;;19.70;44.40
85166;BME280;75533;52.100;10.228;2024-02-28T10:38:11;100679.31;;;19.72;44.37
85166;BME280;75533;52.100;10.228;2024-02-28T10:40:37;100683.16;;;19.71;44.33
85166;BME280;75533;52.100;10.228;2024-02-28T10:43:03;100689.34;;;19.73;44.39
85166;BME280;75533;52.100;10.228;2024-02-28T10:45:31;100688.09;;;19.76;44.32
85166;BME280;75533;52.100;10.228;2024-02-28T10:47:57;100684.69;;;19.74;44.39
85166;BME280;75533;52.100;10.228;2024-02-28T10:50:22;100688.31;;;19.74;44.38
85166;BME280;75533;52.100;10.228;2024-02-28T10:52:48;100688.50;;;19.73;44.32
85166;BME280;75533;52.100;10.228;2024-02-28T10:55:21;100686.56;;;19.73;44.27
85166;BME280;75533;52.100;10.228;2024-02-28T10:58:09;100690.41;;;19.72;44.38
85166;BME280;75533;52.100;10.228;2024-02-28T11:00:39;100685.94;;;19.71;44.27
85166;BME280;75533;52.100;10.228;2024-02-28T11:03:08;100684.22;;;19.70;44.36
85166;BME280;75533;52.100;10.228;2024-02-28T11:05:44;100681.66;;;19.69;44.41
85166;BME280;75533;52.100;10.228;2024-02-28T11:08:21;100686.13;;;19.70;44.33
85166;BME280;75533;52.100;10.228;2024-02-28T11:10:47;100688.91;;;19.70;44.33
85166;BME280;75533;52.100;10.228;2024-02-28T11:13:26;100681.66;;;19.69;44.36
85166;BME280;75533;52.100;10.228;2024-02-28T11:15:52;100683.56;;;19.68;44.40
85166;BME280;75533;52.100;10.228;2024-02-28T11:18:18;100686.34;;;19.68;44.40
85166;BME280;75533;52.100;10.228;2024-02-28T11:20:44;100678.69;;;19.70;44.27
85166;BME280;75533;52.100;10.228;2024-02-28T11:23:13;100682.09;;;19.72;44.21
85166;BME280;75533;52.100;10.228;2024-02-28T11:25:40;100682.31;;;19.71;44.08
85166;BME280;75533;52.100;10.228;2024-02-28T11:28:05;100672.50;;;19.68;44.20
85166;BME280;75533;52.100;10.228;2024-02-28T11:30:32;100678.69;;;19.70;44.20
85166;BME280;75533;52.100;10.228;2024-02-28T11:32:57;100677.81;;;19.70;44.26
85166;BME280;75533;52.100;10.228;2024-02-28T11:35:24;100668.66;;;19.69;44.56
85166;BME280;75533;52.100;10.228;2024-02-28T11:37:50;100680.38;;;19.71;44.86
85166;BME280;75533;52.100;10.228;2024-02-28T11:40:19;100675.69;;;19.72;44.80
85166;BME280;75533;52.100;10.228;2024-02-28T11:42:44;100665.69;;;19.71;44.87
85166;BME280;75533;52.100;10.228;2024-02-28T11:45:10;100666.31;;;19.73;44.80
85166;BME280;75533;52.100;10.228;2024-02-28T11:47:35;100664.41;;;19.73;44.96
85166;BME280;75533;52.100;10.228;2024-02-28T11:50:02;100658.22;;;19.71;45.00
85166;BME280;75533;52.100;10.228;2024-02-28T11:52:30;100659.94;;;19.72;45.03
85166;BME280;75533;52.100;10.228;2024-02-28T11:54:55;100659.53;;;19.75;45.05
85166;BME280;75533;52.100;10.228;2024-02-28T11:57:21;100651.88;;;19.77;44.90
85166;BME280;75533;52.100;10.228;2024-02-28T11:59:46;100654.00;;;19.75;44.80
85166;BME280;75533;52.100;10.228;2024-02-28T12:02:12;100663.81;;;19.78;44.47
85166;BME280;75533;52.100;10.228;2024-02-28T12:04:41;100658.06;;;19.79;44.52
85166;BME280;75533;52.100;10.228;2024-02-28T12:07:08;100653.59;;;19.78;44.66
85166;BME280;75533;52.100;10.228;2024-02-28T12:09:33;100656.16;;;19.87;44.32
85166;BME280;75533;52.100;10.228;2024-02-28T12:12:02;100661.69;;;19.80;44.07
85166;BME280;75533;52.100;10.228;2024-02-28T12:14:31;100659.09;;;19.03;38.26
85166;BME280;75533;52.100;10.228;2024-02-28T12:16:57;100661.56;;;18.91;38.69
85166;BME280;75533;52.100;10.228;2024-02-28T12:19:23;100661.53;;;19.19;39.27
85166;BME280;75533;52.100;10.228;2024-02-28T12:21:49;100658.03;;;19.38;40.72
85166;BME280;75533;52.100;10.228;2024-02-28T12:24:14;100660.44;;;19.48;40.75
85166;BME280;75533;52.100;10.228;2024-02-28T12:26:40;100664.38;;;19.60;40.70
85166;BME280;75533;52.100;10.228;2024-02-28T12:29:06;100654.59;;;19.71;40.81
85166;BME280;75533;52.100;10.228;2024-02-28T12:31:31;100650.63;;;19.87;40.70
85166;BME280;75533;52.100;10.228;2024-02-28T12:33:57;100654.94;;;19.96;40.97